Time;durP1;ratioP1;P1;durP2;ratioP2;P2;SDS_P1;SDS_P2;PMS_P1;PMS_P2;Temp;Humidity;BMP_temperature;BMP_pressure;BME280_temperature;BME280_humidity;BME280_pressure;Samples;Min_cycle;Max_cycle;Signal;HPM_P1;HPM_P2
2021/01/27 00:00:12;;;;;;;48.75;29.02;;;1.10;96.60;;;;;;4995002;28;20220;-75
2021/01/27 00:02:39;;;;;;;54.10;31.17;;;1.60;96.70;;;;;;4998077;28;20217;-75
2021/01/27 00:05:08;;;;;;;51.20;26.60;;;1.00;96.60;;;;;;4986653;28;20210;-75
2021/01/27 00:07:35;;;;;;;52.70;30.67;;;1.00;96.60;;;;;;4995358;28;20279;-75
2021/01/27 00:10:03;;;;;;;50.38;28.38;;;0.90;96.70;;;;;;4989634;28;20205;-73
2021/01/27 00:12:29;;;;;;;54.70;31.27;;;1.00;96.70;;;;;;4998262;28;20220;-73
2021/01/27 00:14:56;;;;;;;51.65;27.48;;;0.90;96.90;;;;;;4998284;28;20244;-75
2021/01/27 00:17:22;;;;;;;49.65;29.88;;;1.00;96.60;;;;;;4988272;28;20276;-73
2021/01/27 00:19:49;;;;;;;43.88;27.48;;;1.10;96.50;;;;;;4992180;28;20496;-73
2021/01/27 00:22:16;;;;;;;47.40;28.63;;;1.10;96.30;;;;;;4990952;28;20212;-74
2021/01/27 00:24:42;;;;;;;48.47;29.35;;;1.10;96.20;;;;;;4998830;28;20209;-75
2021/01/27 00:27:09;;;;;;;44.47;28.98;;;1.00;96.40;;;;;;4993221;28;20203;-75
2021/01/27 00:29:35;;;;;;;47.67;29.38;;;1.10;96.30;;;;;;4995106;28;20213;-74
2021/01/27 00:32:02;;;;;;;46.63;27.58;;;1.10;96.20;;;;;;4994989;28;20205;-75
2021/01/27 00:34:29;;;;;;;39.47;24.60;;;1.10;96.20;;;;;;4993182;28;20277;-75
2021/01/27 00:36:55;;;;;;;51.70;29.40;;;1.00;95.90;;;;;;4998398;28;20198;-74
2021/01/27 00:39:22;;;;;;;46.50;27.48;;;1.10;96.00;;;;;;4997473;28;20205;-74
2021/01/27 00:41:49;;;;;;;38.20;25.40;;;1.50;96.00;;;;;;4989929;28;20216;-74
2021/01/27 00:44:18;;;;;;;41.25;27.30;;;1.30;95.90;;;;;;4989378;28;20210;-74
2021/01/27 00:46:44;;;;;;;42.08;26.80;;;0.20;95.50;;;;;;4989590;28;20231;-76
2021/01/27 00:49:11;;;;;;;41.25;26.02;;;1.10;95.60;;;;;;4992910;28;20210;-75
2021/01/27 00:51:38;;;;;;;35.88;25.85;;;1.10;95.70;;;;;;4994273;28;20209;-75
2021/01/27 00:54:05;;;;;;;41.85;24.88;;;1.10;95.60;;;;;;4989140;28;20210;-74
2021/01/27 00:56:31;;;;;;;42.78;27.27;;;1.00;95.70;;;;;;4998074;28;20209;-75
2021/01/27 00:58:58;;;;;;;43.53;27.40;;;1.40;95.90;;;;;;4995460;28;20241;-74
2021/01/27 01:01:24;;;;;;;47.33;25.77;;;1.00;96.00;;;;;;4990632;28;20209;-73
2021/01/27 01:03:51;;;;;;;43.55;27.65;;;1.10;96.00;;;;;;4988899;28;20206;-74
2021/01/27 01:06:18;;;;;;;47.85;28.92;;;1.10;96.00;;;;;;4984797;28;20206;-75
2021/01/27 01:08:44;;;;;;;43.58;25.92;;;1.10;95.90;;;;;;4998257;28;20233;-75
2021/01/27 01:11:11;;;;;;;48.80;27.40;;;1.00;96.10;;;;;;4997919;28;20214;-75
2021/01/27 01:13:37;;;;;;;42.50;27.23;;;1.00;96.10;;;;;;4996349;28;20210;-75
2021/01/27 01:16:04;;;;;;;47.15;26.67;;;1.50;96.30;;;;;;4997492;28;20245;-75
2021/01/27 01:18:31;;;;;;;40.80;26.85;;;1.10;96.50;;;;;;4985660;28;20262;-75
2021/01/27 01:20:58;;;;;;;43.78;26.63;;;1.10;96.20;;;;;;4985282;28;20210;-77
2021/01/27 01:23:25;;;;;;;48.83;27.27;;;1.10;96.00;;;;;;4994888;28;20247;-78
2021/01/27 01:25:51;;;;;;;51.28;29.17;;;1.20;95.90;;;;;;4992049;28;20217;-74
2021/01/27 01:28:19;;;;;;;46.38;29.02;;;1.50;96.20;;;;;;4996163;28;20508;-74
2021/01/27 01:30:47;;;;;;;42.08;24.08;;;1.10;96.20;;;;;;4997327;28;20213;-74
2021/01/27 01:33:19;;;;;;;44.50;25.02;;;1.30;96.20;;;;;;4988914;28;20519;-75
2021/01/27 01:35:46;;;;;;;44.67;26.00;;;1.10;96.00;;;;;;4989295;28;20244;-74
2021/01/27 01:38:14;;;;;;;37.17;22.25;;;1.10;96.10;;;;;;4988481;28;20536;-74
2021/01/27 01:40:59;;;;;;;39.20;23.23;;;1.20;96.00;;;;;;4996330;28;20277;-74
2021/01/27 01:43:35;;;;;;;39.72;27.27;;;1.30;95.80;;;;;;4997504;28;20214;-73
2021/01/27 01:46:11;;;;;;;44.28;26.73;;;1.10;95.90;;;;;;4997727;28;20289;-73
2021/01/27 01:48:50;;;;;;;43.55;25.55;;;1.00;96.00;;;;;;4993822;28;20273;-74
2021/01/27 01:51:34;;;;;;;41.25;24.02;;;1.10;95.90;;;;;;4991461;28;20205;-74
2021/01/27 01:54:08;;;;;;;44.75;23.42;;;1.00;95.80;;;;;;5001613;28;20212;-75
2021/01/27 01:56:37;;;;;;;36.10;22.95;;;1.10;95.80;;;;;;5001269;28;20209;-76
2021/01/27 01:59:07;;;;;;;39.10;23.75;;;1.00;95.90;;;;;;5000998;28;20717;-75
2021/01/27 02:01:34;;;;;;;40.65;23.73;;;1.00;95.90;;;;;;5001710;28;20201;-76
2021/01/27 02:04:03;;;;;;;36.70;21.75;;;1.00;95.80;;;;;;4995962;28;20504;-74
2021/01/27 02:06:29;;;;;;;43.88;24.23;;;1.10;95.70;;;;;;4991965;28;20212;-75
2021/01/27 02:08:58;;;;;;;35.17;23.80;;;1.10;95.60;;;;;;4999937;28;20189;-76
2021/01/27 02:11:39;;;;;;;36.40;24.40;;;1.10;95.40;;;;;;5000475;28;20209;-75
2021/01/27 02:14:48;;;;;;;30.40;18.90;;;1.10;95.30;;;;;;4994010;28;20244;-76
2021/01/27 02:17:29;;;;;;;35.85;21.65;;;1.00;95.30;;;;;;5002108;28;20547;-76
2021/01/27 02:19:59;;;;;;;37.38;23.10;;;1.00;95.40;;;;;;4997072;28;20214;-76
2021/01/27 02:22:41;;;;;;;38.88;22.05;;;0.90;95.40;;;;;;4999738;28;20217;-76
2021/01/27 02:25:44;;;;;;;35.17;20.98;;;0.90;95.50;;;;;;4998881;28;20206;-76
2021/01/27 02:28:18;;;;;;;33.42;21.63;;;0.90;95.60;;;;;;5000192;28;20573;-76
2021/01/27 02:31:12;;;;;;;34.88;20.98;;;0.90;95.60;;;;;;4998842;28;20209;-76
2021/01/27 02:33:50;;;;;;;33.65;20.45;;;0.90;95.60;;;;;;4999850;28;20747;-75
2021/01/27 02:36:52;;;;;;;33.70;22.55;;;0.90;95.40;;;;;;5000879;28;20208;-75
2021/01/27 02:39:24;;;;;;;31.13;20.48;;;0.80;95.40;;;;;;4995409;28;20408;-76
2021/01/27 02:42:01;;;;;;;33.83;20.05;;;0.80;95.40;;;;;;4998869;28;20500;-76
2021/01/27 02:44:57;;;;;;;30.67;19.58;;;0.70;95.70;;;;;;4999613;28;20206;-75
2021/01/27 02:47:29;;;;;;;32.83;20.08;;;0.80;95.70;;;;;;4993334;28;20220;-76
2021/01/27 02:50:07;;;;;;;27.52;19.08;;;0.80;95.50;;;;;;4999870;28;20217;-75
2021/01/27 02:52:39;;;;;;;29.50;18.73;;;0.60;95.50;;;;;;4986474;28;20313;-75
2021/01/27 02:55:18;;;;;;;27.58;17.27;;;0.50;95.40;;;;;;4997614;28;20304;-76
2021/01/27 02:58:10;;;;;;;30.95;18.23;;;0.60;95.50;;;;;;4992197;28;20221;-75
2021/01/27 03:00:41;;;;;;;35.40;20.63;;;0.60;95.80;;;;;;5001919;28;20209;-75
2021/01/27 03:03:14;;;;;;;32.78;19.73;;;1.50;96.00;;;;;;4992109;28;20225;-75
2021/01/27 03:05:45;;;;;;;36.17;20.85;;;0.70;95.80;;;;;;4995249;28;20213;-75
2021/01/27 03:08:19;;;;;;;32.00;20.15;;;0.70;95.50;;;;;;4999590;28;20252;-75
2021/01/27 03:11:04;;;;;;;28.85;17.75;;;0.70;95.20;;;;;;4998003;28;20236;-74
2021/01/27 03:13:30;;;;;;;31.02;18.33;;;0.90;95.40;;;;;;5020825;28;20631;-73
2021/01/27 03:16:02;;;;;;;33.45;20.42;;;0.70;95.40;;;;;;4997678;28;20244;-74
2021/01/27 03:18:33;;;;;;;31.92;18.67;;;0.60;95.30;;;;;;4985730;28;20238;-76
2021/01/27 03:21:05;;;;;;;28.15;18.67;;;0.50;95.10;;;;;;4993356;28;20224;-75
2021/01/27 03:23:48;;;;;;;32.17;17.88;;;0.20;95.20;;;;;;4993122;28;20217;-73
2021/01/27 03:26:20;;;;;;;31.65;19.77;;;0.10;95.40;;;;;;4992053;28;20465;-73
2021/01/27 03:29:01;;;;;;;33.72;19.55;;;0.00;95.80;;;;;;4990169;28;20214;-76
2021/01/27 03:31:28;;;;;;;38.28;20.42;;;0.60;96.20;;;;;;4996272;28;20399;-74
2021/01/27 03:34:00;;;;;;;34.50;19.48;;;0.50;96.20;;;;;;4987624;28;20214;-75
2021/01/27 03:36:32;;;;;;;34.67;17.48;;;0.90;96.00;;;;;;4996022;28;20210;-74
2021/01/27 03:39:00;;;;;;;27.33;17.55;;;0.10;95.60;;;;;;4994250;28;20235;-73
2021/01/27 03:41:37;;;;;;;27.05;17.40;;;0.90;95.90;;;;;;4998546;28;20496;-74
2021/01/27 03:44:28;;;;;;;25.20;18.23;;;0.10;95.90;;;;;;4999122;28;20284;-74
2021/01/27 03:47:02;;;;;;;22.08;14.52;;;0.40;96.10;;;;;;4998719;28;20520;-75
2021/01/27 03:49:49;;;;;;;19.48;12.88;;;0.20;95.80;;;;;;4997766;28;20210;-74
2021/01/27 03:52:45;;;;;;;17.65;11.77;;;0.80;95.40;;;;;;4980005;28;20202;-74
2021/01/27 03:55:33;;;;;;;14.45;11.13;;;1.30;95.00;;;;;;4982666;28;20206;-74
2021/01/27 03:58:21;;;;;;;17.33;11.07;;;0.50;94.40;;;;;;4987916;28;20221;-73
2021/01/27 04:00:50;;;;;;;12.38;9.38;;;0.60;94.10;;;;;;4979511;28;20237;-75
2021/01/27 04:03:19;;;;;;;23.50;10.38;;;0.60;93.90;;;;;;4993128;28;20671;-75
2021/01/27 04:05:47;;;;;;;17.83;11.50;;;0.50;93.90;;;;;;4998864;28;20232;-74
2021/01/27 04:08:15;;;;;;;20.00;12.40;;;0.40;94.10;;;;;;4985495;28;20242;-74
2021/01/27 04:10:42;;;;;;;20.02;12.25;;;0.40;94.30;;;;;;4998719;28;20206;-73
2021/01/27 04:13:09;;;;;;;17.10;12.43;;;0.30;94.40;;;;;;4986381;28;20414;-74
2021/01/27 04:15:36;;;;;;;17.00;11.77;;;0.10;94.60;;;;;;4982120;28;20242;-74
2021/01/27 04:18:03;;;;;;;16.13;11.57;;;0.00;94.70;;;;;;4988751;28;20238;-73
2021/01/27 04:20:29;;;;;;;17.48;11.30;;;0.00;94.90;;;;;;4995742;28;20214;-73
2021/01/27 04:22:56;;;;;;;20.50;13.20;;;0.40;95.40;;;;;;4990937;28;20217;-73
2021/01/27 04:25:23;;;;;;;17.58;11.07;;;0.00;95.50;;;;;;4990876;28;20214;-73
2021/01/27 04:27:50;;;;;;;25.45;14.18;;;-0.40;95.60;;;;;;4997890;28;20209;-72
2021/01/27 04:30:24;;;;;;;20.88;12.10;;;-0.40;95.60;;;;;;4991685;28;20211;-72
2021/01/27 04:32:51;;;;;;;16.65;11.55;;;-0.50;95.60;;;;;;4998323;28;20504;-73
2021/01/27 04:35:19;;;;;;;28.30;14.20;;;-0.50;95.70;;;;;;4997682;28;20209;-73
2021/01/27 04:37:46;;;;;;;25.60;12.60;;;-0.40;95.80;;;;;;4997764;28;20233;-72
2021/01/27 04:40:38;;;;;;;20.25;14.45;;;-0.30;95.80;;;;;;4986116;28;20206;-73
2021/01/27 04:43:20;;;;;;;24.20;14.25;;;0.40;96.10;;;;;;4984775;28;20209;-73
2021/01/27 04:45:54;;;;;;;22.23;13.68;;;0.80;96.00;;;;;;4984704;28;20205;-73
2021/01/27 04:48:31;;;;;;;19.35;11.23;;;0.20;95.20;;;;;;4996249;28;20212;-74
2021/01/27 04:51:02;;;;;;;12.52;10.02;;;0.70;94.80;;;;;;4998372;28;20204;-75
2021/01/27 04:53:37;;;;;;;21.27;11.07;;;0.40;94.30;;;;;;4984010;28;20220;-74
2021/01/27 04:56:24;;;;;;;18.45;11.35;;;0.50;94.10;;;;;;4997488;28;20208;-74
2021/01/27 04:59:19;;;;;;;14.40;10.07;;;0.50;94.00;;;;;;4984361;28;20229;-75
2021/01/27 05:02:14;;;;;;;17.30;10.90;;;0.50;93.80;;;;;;4997511;28;20531;-74
2021/01/27 05:05:00;;;;;;;16.05;9.07;;;0.40;94.00;;;;;;4997670;28;20217;-73
2021/01/27 05:07:40;;;;;;;12.85;9.70;;;0.50;93.90;;;;;;4985062;28;20228;-73
2021/01/27 05:10:09;;;;;;;10.93;8.02;;;0.50;93.60;;;;;;4983887;28;20201;-73
2021/01/27 05:12:41;;;;;;;15.57;9.50;;;0.40;93.20;;;;;;4998327;28;20221;-74
2021/01/27 05:15:10;;;;;;;10.02;8.45;;;0.40;93.00;;;;;;4997354;28;20434;-75
2021/01/27 05:17:43;;;;;;;9.15;7.15;;;0.50;93.00;;;;;;4998045;28;20531;-73
2021/01/27 05:20:14;;;;;;;11.98;8.10;;;1.10;92.70;;;;;;4997742;28;20223;-74
2021/01/27 05:22:41;;;;;;;9.15;6.78;;;0.60;92.30;;;;;;4996972;28;20551;-73
2021/01/27 05:25:39;;;;;;;10.07;6.80;;;0.50;92.40;;;;;;4996644;28;20205;-74
2021/01/27 05:28:29;;;;;;;9.82;7.35;;;0.70;92.80;;;;;;4998877;28;20213;-73
2021/01/27 05:30:56;;;;;;;6.95;6.13;;;0.50;92.10;;;;;;5002160;28;20209;-73
2021/01/27 05:33:45;;;;;;;11.18;5.65;;;0.50;92.10;;;;;;5000663;28;20215;-75
2021/01/27 05:36:25;;;;;;;9.95;6.60;;;0.50;92.00;;;;;;4994019;28;20367;-74
2021/01/27 05:39:15;;;;;;;8.52;6.15;;;0.70;92.00;;;;;;4988514;28;20221;-75
2021/01/27 05:41:43;;;;;;;13.63;8.10;;;0.70;91.90;;;;;;4997992;28;20209;-75
2021/01/27 05:44:14;;;;;;;11.20;8.35;;;0.80;91.60;;;;;;4989056;28;20366;-74
2021/01/27 05:46:42;;;;;;;10.75;7.25;;;1.60;92.00;;;;;;5001130;28;20611;-75
2021/01/27 05:49:28;;;;;;;8.95;7.40;;;0.70;91.90;;;;;;5000195;28;20217;-74
2021/01/27 05:52:14;;;;;;;11.60;7.85;;;0.70;92.10;;;;;;5000860;28;20252;-75
2021/01/27 05:54:41;;;;;;;10.57;8.70;;;0.80;92.00;;;;;;5001575;28;20205;-74
2021/01/27 05:57:17;;;;;;;16.52;8.05;;;0.80;91.90;;;;;;5000975;28;20500;-75
2021/01/27 05:59:46;;;;;;;11.10;7.35;;;0.80;92.00;;;;;;4987739;28;20210;-75
2021/01/27 06:02:13;;;;;;;11.60;7.40;;;0.80;92.00;;;;;;4981258;28;20199;-73
2021/01/27 06:04:40;;;;;;;12.88;7.80;;;0.90;92.30;;;;;;4993204;28;20268;-72
2021/01/27 06:07:20;;;;;;;13.77;8.40;;;0.90;92.10;;;;;;4996356;28;20226;-76
2021/01/27 06:09:53;;;;;;;17.20;11.02;;;1.00;92.50;;;;;;4993714;28;20206;-75
2021/01/27 06:12:19;;;;;;;15.27;8.65;;;0.80;92.60;;;;;;4986674;28;20725;-74
2021/01/27 06:15:12;;;;;;;16.65;9.60;;;0.90;92.70;;;;;;4995988;28;20246;-75
2021/01/27 06:17:45;;;;;;;12.40;7.88;;;0.90;92.50;;;;;;4994707;28;20237;-74
2021/01/27 06:20:15;;;;;;;13.75;9.35;;;1.10;92.40;;;;;;4980677;28;20278;-74
2021/01/27 06:23:02;;;;;;;18.40;11.30;;;1.00;92.40;;;;;;4983291;28;20286;-74
2021/01/27 06:25:50;;;;;;;14.52;9.15;;;1.10;92.40;;;;;;4984614;28;20206;-76
2021/01/27 06:28:16;;;;;;;13.30;9.32;;;1.00;92.70;;;;;;4983548;28;20301;-75
2021/01/27 06:31:09;;;;;;;15.02;9.80;;;1.00;93.10;;;;;;4983244;28;20206;-74
2021/01/27 06:33:51;;;;;;;15.80;9.32;;;1.00;93.00;;;;;;4987263;28;20206;-74
2021/01/27 06:36:27;;;;;;;18.55;10.95;;;1.10;92.80;;;;;;4982234;28;20273;-74
2021/01/27 06:39:18;;;;;;;23.08;13.10;;;1.10;93.00;;;;;;4997218;28;20420;-74
2021/01/27 06:42:14;;;;;;;19.60;11.32;;;1.10;93.10;;;;;;4986298;28;20221;-75
2021/01/27 06:45:28;;;;;;;20.63;14.00;;;1.90;93.30;;;;;;4999668;28;20752;-73
2021/01/27 06:48:16;;;;;;;19.77;11.85;;;1.10;93.10;;;;;;5006086;28;20256;-74
2021/01/27 06:51:16;;;;;;;21.00;12.82;;;1.10;93.10;;;;;;4980572;28;20253;-74
2021/01/27 06:54:07;;;;;;;26.73;13.85;;;1.20;93.40;;;;;;5013156;28;20209;-74
2021/01/27 06:56:53;;;;;;;20.80;12.45;;;1.20;93.30;;;;;;4958539;28;20205;-74
2021/01/27 06:59:59;;;;;;;23.45;14.05;;;1.20;93.20;;;;;;4980669;28;20222;-74
2021/01/27 07:02:44;;;;;;;25.88;14.30;;;1.20;93.30;;;;;;4987939;28;20218;-73
2021/01/27 07:05:47;;;;;;;27.80;15.60;;;1.20;93.50;;;;;;4949032;28;20283;-76
2021/01/27 07:08:37;;;;;;;28.10;13.82;;;2.40;93.90;;;;;;4996145;28;20240;-74
2021/01/27 07:11:35;;;;;;;19.95;12.82;;;1.10;93.80;;;;;;4984975;28;20543;-74
2021/01/27 07:14:26;;;;;;;20.52;14.38;;;-0.50;93.20;;;;;;5024047;28;20260;-75
2021/01/27 07:17:13;;;;;;;18.30;12.00;;;1.20;93.60;;;;;;4994206;28;20374;-74
2021/01/27 07:19:43;;;;;;;19.75;13.80;;;1.10;93.60;;;;;;4985599;28;20222;-75
2021/01/27 07:22:19;;;;;;;21.50;12.50;;;1.10;93.60;;;;;;4988715;28;20206;-74
2021/01/27 07:25:05;;;;;;;23.00;14.18;;;1.20;93.30;;;;;;4994751;28;20432;-75
2021/01/27 07:27:44;;;;;;;27.35;13.40;;;1.20;93.30;;;;;;4997895;28;20208;-74
2021/01/27 07:30:19;;;;;;;17.83;12.80;;;1.30;93.10;;;;;;4992133;28;20272;-76
2021/01/27 07:32:56;;;;;;;19.63;12.00;;;1.20;93.30;;;;;;4991782;28;20383;-75
2021/01/27 07:35:32;;;;;;;17.50;13.00;;;1.40;93.20;;;;;;4985301;28;20350;-76
2021/01/27 07:38:23;;;;;;;22.42;12.35;;;1.90;93.30;;;;;;4997918;28;20296;-76
2021/01/27 07:41:00;;;;;;;19.60;11.45;;;1.70;92.70;;;;;;4994993;28;20205;-75
2021/01/27 07:43:54;;;;;;;21.10;10.32;;;1.40;92.50;;;;;;4985205;28;20206;-76
2021/01/27 07:46:47;;;;;;;16.65;10.63;;;1.40;92.30;;;;;;4988285;28;20206;-76
2021/01/27 07:49:25;;;;;;;16.15;9.63;;;1.40;92.10;;;;;;4979490;28;20211;-75
2021/01/27 07:52:00;;;;;;;16.17;9.98;;;1.40;92.20;;;;;;4979493;28;20206;-75
2021/01/27 07:54:38;;;;;;;13.13;9.30;;;1.50;92.20;;;;;;4977932;28;20212;-76
2021/01/27 07:57:34;;;;;;;14.73;9.90;;;1.50;92.00;;;;;;4980653;28;20205;-76
2021/01/27 08:00:20;;;;;;;12.63;8.05;;;1.50;91.90;;;;;;4994384;28;20269;-75
2021/01/27 08:03:07;;;;;;;20.83;11.15;;;1.60;91.30;;;;;;4992876;28;20498;-75
2021/01/27 08:05:44;;;;;;;14.77;10.95;;;1.70;91.40;;;;;;4994599;28;20217;-75
2021/01/27 08:08:21;;;;;;;13.45;8.48;;;1.80;91.40;;;;;;4991515;28;20253;-74
2021/01/27 08:10:52;;;;;;;15.00;10.30;;;1.80;91.30;;;;;;4995465;28;20217;-76
2021/01/27 08:13:27;;;;;;;18.02;11.48;;;1.90;90.80;;;;;;4993934;28;20242;-77
2021/01/27 08:16:08;;;;;;;17.20;11.93;;;1.80;91.00;;;;;;4994749;28;20595;-76
2021/01/27 08:18:56;;;;;;;15.07;11.13;;;1.90;90.90;;;;;;4988498;28;20222;-76
2021/01/27 08:21:28;;;;;;;19.88;10.75;;;2.00;90.60;;;;;;4980831;28;20395;-77
2021/01/27 08:23:55;;;;;;;19.25;11.10;;;2.10;90.60;;;;;;4995923;28;20577;-78
2021/01/27 08:26:41;;;;;;;21.27;10.95;;;2.10;90.70;;;;;;4987329;28;20248;-76
2021/01/27 08:29:12;;;;;;;13.93;9.93;;;2.20;90.50;;;;;;4993825;28;20209;-76
2021/01/27 08:31:40;;;;;;;13.27;8.95;;;2.20;90.80;;;;;;5009467;28;20226;-76
2021/01/27 08:34:31;;;;;;;18.27;12.27;;;2.10;91.00;;;;;;4983191;28;20401;-78
2021/01/27 08:37:09;;;;;;;15.70;10.20;;;2.10;91.00;;;;;;4989763;28;20244;-75
2021/01/27 08:40:02;;;;;;;18.00;11.63;;;2.30;90.50;;;;;;4990530;28;20256;-77
2021/01/27 08:42:39;;;;;;;17.52;11.52;;;2.40;90.00;;;;;;4995952;28;20249;-77
2021/01/27 08:45:31;;;;;;;13.48;9.38;;;2.40;89.90;;;;;;4983795;28;20237;-78
2021/01/27 08:48:06;;;;;;;14.73;11.43;;;2.50;89.70;;;;;;5003850;28;20203;-77
2021/01/27 08:50:53;;;;;;;16.20;10.05;;;2.60;89.50;;;;;;4992605;28;20232;-78
2021/01/27 08:53:56;;;;;;;16.70;10.70;;;2.70;88.50;;;;;;4989577;28;20223;-81
2021/01/27 08:56:45;;;;;;;14.65;9.18;;;2.80;88.30;;;;;;4998655;28;20203;-83
2021/01/27 08:59:27;;;;;;;13.90;9.00;;;3.00;88.20;;;;;;4993793;28;20429;-82
2021/01/27 09:01:54;;;;;;;14.88;9.50;;;3.20;86.10;;;;;;4982655;28;20213;-81
2021/01/27 09:04:37;;;;;;;17.00;10.25;;;3.00;87.00;;;;;;4982065;28;20570;-83
2021/01/27 09:07:08;;;;;;;11.50;7.97;;;3.10;85.90;;;;;;4996278;28;20237;-83
2021/01/27 09:09:39;;;;;;;14.13;9.20;;;3.10;85.60;;;;;;4995880;28;20220;-81
2021/01/27 09:12:09;;;;;;;18.15;9.63;;;3.20;86.10;;;;;;4992853;28;20519;-81
2021/01/27 09:14:37;;;;;;;18.67;11.35;;;3.20;85.50;;;;;;4996759;28;20238;-82
2021/01/27 09:17:08;;;;;;;17.98;10.85;;;3.10;85.90;;;;;;4990995;28;20225;-84
2021/01/27 09:19:42;;;;;;;13.98;9.93;;;3.30;85.70;;;;;;4995975;28;20237;-84
2021/01/27 09:22:24;;;;;;;16.33;10.50;;;3.40;84.40;;;;;;4994364;28;20287;-82
2021/01/27 09:24:57;;;;;;;17.98;10.75;;;3.50;84.50;;;;;;4990422;28;20229;-84
2021/01/27 09:27:30;;;;;;;14.20;10.25;;;3.40;84.50;;;;;;4991492;28;20208;-83
2021/01/27 09:29:59;;;;;;;17.98;12.02;;;3.40;84.90;;;;;;5003810;28;20224;-83
2021/01/27 09:32:28;;;;;;;15.27;10.23;;;3.40;85.00;;;;;;5010010;28;20236;-87
2021/01/27 09:35:08;;;;;;;17.02;10.52;;;3.40;84.60;;;;;;4999845;28;21194;-83
2021/01/27 09:37:56;;;;;;;18.80;12.05;;;3.40;83.90;;;;;;4988472;28;20552;-84
2021/01/27 09:40:53;;;;;;;15.77;10.55;;;3.20;84.80;;;;;;5003207;28;20253;-82
2021/01/27 09:43:22;;;;;;;15.32;10.98;;;3.10;85.90;;;;;;4997114;28;20199;-85
2021/01/27 09:45:51;;;;;;;13.10;10.50;;;3.20;85.80;;;;;;5010510;28;20536;-82
2021/01/27 09:48:24;;;;;;;22.25;13.05;;;3.40;84.90;;;;;;4984906;28;20219;-84
2021/01/27 09:51:01;;;;;;;16.83;11.50;;;3.60;84.20;;;;;;5005356;28;20203;-82
2021/01/27 09:53:30;;;;;;;17.80;11.20;;;4.10;83.70;;;;;;4995049;28;20587;-83
2021/01/27 09:55:58;;;;;;;15.25;11.02;;;4.10;82.40;;;;;;5004765;28;20291;-85
2021/01/27 09:58:25;;;;;;;17.73;12.07;;;4.10;81.60;;;;;;4993180;28;20565;-87
2021/01/27 10:01:00;;;;;;;18.70;12.15;;;3.90;84.40;;;;;;4993207;28;20215;-85
2021/01/27 10:03:48;;;;;;;17.42;12.23;;;3.90;83.30;;;;;;4999809;28;20231;-83
2021/01/27 10:06:40;;;;;;;19.42;12.60;;;4.10;83.40;;;;;;4996044;28;20211;-85
2021/01/27 10:09:32;;;;;;;18.20;12.85;;;4.20;84.50;;;;;;4999447;28;20226;-83
2021/01/27 10:12:21;;;;;;;22.23;13.60;;;4.20;83.80;;;;;;4996127;28;20421;-82
2021/01/27 10:14:48;;;;;;;18.58;12.20;;;4.30;83.10;;;;;;4999773;28;20255;-81
2021/01/27 10:17:26;;;;;;;20.23;13.07;;;4.30;83.20;;;;;;5000266;28;20324;-79
2021/01/27 10:20:22;;;;;;;20.00;13.48;;;4.30;83.40;;;;;;4999666;28;20224;-76
2021/01/27 10:22:58;;;;;;;27.23;12.82;;;4.40;83.30;;;;;;4983696;28;20562;-77
2021/01/27 10:25:40;;;;;;;20.20;13.55;;;4.30;82.00;;;;;;4998604;28;20286;-76
2021/01/27 10:28:11;;;;;;;20.95;14.55;;;4.40;82.80;;;;;;4994626;28;20385;-76
2021/01/27 10:30:52;;;;;;;19.88;14.65;;;4.50;82.50;;;;;;5014654;28;20221;-76
2021/01/27 10:33:41;;;;;;;21.58;12.95;;;4.40;83.10;;;;;;4981434;28;20593;-76
2021/01/27 10:36:38;;;;;;;18.63;13.15;;;4.40;82.70;;;;;;4982053;28;20353;-76
2021/01/27 10:39:19;;;;;;;16.08;11.57;;;4.40;82.20;;;;;;4996988;28;20227;-76
2021/01/27 10:41:50;;;;;;;18.50;12.90;;;4.60;82.80;;;;;;4994087;28;20215;-76
2021/01/27 10:44:21;;;;;;;17.70;12.60;;;4.70;81.40;;;;;;4996775;28;20313;-76
2021/01/27 10:46:50;;;;;;;21.20;13.00;;;4.70;81.80;;;;;;4995277;28;20286;-76
2021/01/27 10:49:39;;;;;;;13.80;10.77;;;4.80;81.10;;;;;;4988013;28;20237;-76
2021/01/27 10:52:24;;;;;;;19.83;14.05;;;4.70;80.70;;;;;;4989810;28;20218;-76
2021/01/27 10:54:57;;;;;;;15.90;11.80;;;4.60;80.70;;;;;;4992641;28;20213;-74
2021/01/27 10:57:25;;;;;;;15.63;12.05;;;4.80;81.10;;;;;;5003003;28;20241;-74
2021/01/27 10:59:53;;;;;;;24.98;11.98;;;4.90;79.50;;;;;;4992600;28;20270;-75
2021/01/27 11:02:20;;;;;;;17.27;11.30;;;4.90;80.70;;;;;;4988977;28;20213;-74
2021/01/27 11:04:46;;;;;;;19.88;13.07;;;5.20;80.60;;;;;;4984720;28;20220;-76
2021/01/27 11:07:14;;;;;;;22.58;12.95;;;5.30;80.30;;;;;;4996866;28;20445;-74
2021/01/27 11:09:41;;;;;;;12.65;10.48;;;5.00;80.10;;;;;;4995387;28;20227;-75
2021/01/27 11:12:08;;;;;;;14.10;10.23;;;5.10;80.70;;;;;;4994453;28;20585;-73
2021/01/27 11:14:37;;;;;;;16.83;11.35;;;5.20;80.00;;;;;;4998105;28;20454;-74
2021/01/27 11:17:04;;;;;;;20.02;12.55;;;5.20;78.80;;;;;;4993964;28;20513;-74
2021/01/27 11:19:31;;;;;;;13.20;10.68;;;5.30;78.40;;;;;;4986559;28;20303;-76
2021/01/27 11:21:58;;;;;;;11.88;9.65;;;5.10;78.30;;;;;;4983540;28;20583;-74
2021/01/27 11:24:24;;;;;;;12.73;9.90;;;5.00;78.80;;;;;;4998439;28;20502;-75
2021/01/27 11:26:51;;;;;;;15.15;9.93;;;4.80;79.70;;;;;;4988058;28;20233;-75
2021/01/27 11:29:18;;;;;;;14.38;9.10;;;5.00;79.60;;;;;;4981640;28;20253;-75
2021/01/27 11:31:44;;;;;;;14.20;9.98;;;5.20;77.70;;;;;;5001420;28;20210;-73
2021/01/27 11:34:12;;;;;;;16.45;10.50;;;5.20;76.70;;;;;;4985791;28;20205;-75
2021/01/27 11:36:42;;;;;;;15.63;10.00;;;5.20;77.70;;;;;;5014387;28;20220;-74
2021/01/27 11:39:11;;;;;;;12.57;9.20;;;5.30;75.90;;;;;;4998246;28;20463;-74
2021/01/27 11:41:38;;;;;;;15.50;8.57;;;5.30;75.80;;;;;;4990491;28;20349;-73
2021/01/27 11:44:09;;;;;;;11.43;8.38;;;5.30;75.60;;;;;;4995843;28;20226;-75
2021/01/27 11:46:36;;;;;;;15.10;9.20;;;5.10;76.20;;;;;;4995984;28;20212;-72
2021/01/27 11:49:03;;;;;;;14.68;9.18;;;5.20;77.50;;;;;;4997477;28;20441;-73
2021/01/27 11:51:34;;;;;;;19.40;9.82;;;5.20;75.40;;;;;;4980231;28;20222;-73
2021/01/27 11:54:02;;;;;;;15.55;7.65;;;5.10;76.30;;;;;;4978862;28;20215;-73
2021/01/27 11:56:29;;;;;;;11.55;7.50;;;5.10;74.70;;;;;;4997590;28;20276;-74
2021/01/27 11:58:55;;;;;;;11.30;7.45;;;4.90;75.10;;;;;;5013888;28;20471;-75
2021/01/27 12:01:28;;;;;;;12.10;7.70;;;4.80;74.90;;;;;;4992630;28;20219;-74
2021/01/27 12:03:58;;;;;;;10.27;7.00;;;4.80;75.50;;;;;;4982432;28;20304;-73
2021/01/27 12:06:26;;;;;;;6.25;4.93;;;4.60;74.30;;;;;;4984852;28;20212;-74
2021/01/27 12:08:53;;;;;;;10.65;5.53;;;4.50;72.70;;;;;;4989638;28;20231;-74
2021/01/27 12:11:20;;;;;;;13.73;6.80;;;5.40;74.10;;;;;;4989476;28;20228;-73
2021/01/27 12:13:48;;;;;;;9.15;6.43;;;4.20;75.40;;;;;;4990873;28;20204;-75
2021/01/27 12:16:16;;;;;;;11.52;5.70;;;4.20;75.40;;;;;;4993401;28;20252;-74
2021/01/27 12:18:43;;;;;;;11.63;6.70;;;4.10;77.10;;;;;;4987727;28;20624;-74
2021/01/27 12:21:10;;;;;;;9.90;6.03;;;4.00;75.80;;;;;;4988751;28;20223;-73
2021/01/27 12:23:37;;;;;;;13.30;7.63;;;3.90;76.10;;;;;;4993359;28;20239;-74
2021/01/27 12:26:03;;;;;;;12.73;7.72;;;3.80;76.30;;;;;;5021088;28;20234;-74
2021/01/27 12:28:30;;;;;;;12.65;5.85;;;3.80;77.60;;;;;;5005901;28;20299;-74
2021/01/27 12:30:57;;;;;;;9.07;6.32;;;3.70;77.10;;;;;;4996563;28;20218;-72
2021/01/27 12:33:26;;;;;;;8.30;6.70;;;3.70;77.60;;;;;;4982229;28;20212;-73
2021/01/27 12:35:52;;;;;;;10.50;6.30;;;3.80;76.50;;;;;;4981998;28;20243;-74
2021/01/27 12:38:21;;;;;;;11.02;5.97;;;3.90;75.10;;;;;;4979743;28;20243;-73
2021/01/27 12:40:49;;;;;;;6.90;5.53;;;4.00;73.80;;;;;;4991502;28;20209;-74
2021/01/27 12:43:18;;;;;;;16.90;9.18;;;4.10;72.80;;;;;;5009341;28;20213;-74
2021/01/27 12:45:45;;;;;;;5.57;3.53;;;4.10;73.50;;;;;;4991776;28;20390;-73
2021/01/27 12:48:12;;;;;;;5.28;4.05;;;4.30;70.00;;;;;;4978137;28;20213;-74
2021/01/27 12:50:39;;;;;;;5.50;4.30;;;4.20;72.80;;;;;;4991780;28;20225;-74
2021/01/27 12:53:06;;;;;;;13.85;4.30;;;4.20;71.20;;;;;;4988072;28;20288;-75
2021/01/27 12:55:33;;;;;;;5.80;4.25;;;4.50;72.20;;;;;;5010094;28;20212;-74
2021/01/27 12:58:00;;;;;;;6.13;5.18;;;4.20;73.20;;;;;;4979483;28;20410;-73
2021/01/27 13:00:28;;;;;;;8.57;5.13;;;4.10;74.00;;;;;;5022619;28;20220;-72
2021/01/27 13:02:56;;;;;;;7.90;5.85;;;4.10;75.10;;;;;;4977636;28;20220;-73
2021/01/27 13:05:25;;;;;;;9.07;5.70;;;4.10;74.60;;;;;;4994134;28;20208;-74
2021/01/27 13:07:53;;;;;;;13.82;8.60;;;4.10;75.10;;;;;;4996232;28;20570;-73
2021/01/27 13:10:21;;;;;;;15.50;7.32;;;4.10;75.00;;;;;;4994629;28;20305;-73
2021/01/27 13:12:50;;;;;;;10.63;6.25;;;4.20;76.50;;;;;;4985118;28;20285;-74
2021/01/27 13:15:20;;;;;;;9.43;6.90;;;4.20;75.50;;;;;;4980344;28;20244;-75
2021/01/27 13:17:51;;;;;;;10.57;5.18;;;4.20;76.70;;;;;;5017799;28;20205;-73
2021/01/27 13:20:22;;;;;;;9.02;6.03;;;4.20;77.40;;;;;;4982466;28;20240;-74